WMKP

Penang International Airport

Airport
ICAO code
WMKP
IATA Code
PEN
Summary
ICAO Region
APAC
ICAO Territory
Location

Bayan Lepas, Penang, Penang

Serving
Penang
Elevation
11 ft
Coordinates
5° 17' 38" N , 100° 15' 56" E
KCC
Metar
Observation
WMKP 060100Z 02004KT 350V060 7000 FEW020 27/25 Q1010 NOSIG
Station
Penang / Bayan Lepas
Date/Time
2022-10-06 01:00:00
Wind direction
20°
Wind speed
04 kts
Lowest cloud amount
few clouds
Temperature
27°C
Dew point
25°C
Humidity
88%
QNH
1010 hPa
Weather condition
n/a

Penang International Airport, previously known as Bayan Lepas International Airport, is situated in the Bayan Lepas area that at southeast of Penang Island, Malaysia. The airport is located 14 km away from George Town, the capital city of Penang.

Climatology

Tropical Rainforest climate (Köppen climate classification Af) - almost no distinct seasons, average daily temperature around 27°C throughout the year. Extensive cloud cover and heavy rainfall prevent temperatures from rising much over 33°C. The diurnal temperature change is between 2°C and 5°C which is greater than the annual temperature range of 2°C. Rainfall is heavy and is usually convectional and in the afternoon.

Airport map

Aerial View

SKYbrary Partners:

Safety knowledge contributed by: